Afton, Minnesota
Current Conditions -  °F | °C
As of 6:31 PM on Sunday 21 Dec 2014 (Local Time) from K21D Reporting Station
Haze Haze  
Wind Chill: 28°   Ceiling: 300
Heat Index: 36°   Visibility: 3mi
Dew Point: 36°   Wind: 10mph
Humidity: 100%   Direction: 170°S
Pressure: 29.76"   Gusts: NA
Location:  44.9°N, 92.78°W
Report Text: K21D 220031Z AUTO 17009KT 3SM BR OVC003 02/02 A2976 RMK AO2
Loading
Personal Weather Stations






























Interactive Weather Map New forecast layout! Learn more

10-Day Weather Forecast

Advertisements
Track Severe Weather on mobile